Time;durP1;ratioP1;P1;durP2;ratioP2;P2;SDS_P1;SDS_P2;PMS_P1;PMS_P2;Temp;Humidity;BMP_temperature;BMP_pressure;BME280_temperature;BME280_humidity;BME280_pressure;Samples;Min_cycle;Max_cycle;Signal;HPM_P1;HPM_P2
2021/09/19 00:01:28;;;;;;;17.47;15.83;;;13.60;99.90;;;;;;4934802;29;20263;-62
2021/09/19 00:03:54;;;;;;;16.30;14.33;;;13.50;99.90;;;;;;4934952;29;20229;-62
2021/09/19 00:06:19;;;;;;;16.80;15.13;;;13.60;99.90;;;;;;4917754;29;20248;-62
2021/09/19 00:08:45;;;;;;;18.30;15.80;;;13.60;99.90;;;;;;4936332;29;20429;-61
2021/09/19 00:11:11;;;;;;;16.17;14.83;;;13.60;99.90;;;;;;4954053;28;20216;-62
2021/09/19 00:13:36;;;;;;;15.43;13.93;;;13.60;99.90;;;;;;4953928;29;20173;-61
2021/09/19 00:16:02;;;;;;;16.70;15.20;;;13.60;99.90;;;;;;4953909;29;20185;-63
2021/09/19 00:18:28;;;;;;;15.00;13.53;;;13.50;99.90;;;;;;4953688;29;20173;-63
2021/09/19 00:20:53;;;;;;;17.00;15.50;;;13.50;99.90;;;;;;4953705;28;20447;-62
2021/09/19 00:23:19;;;;;;;16.47;14.97;;;13.50;99.90;;;;;;4953806;29;20268;-61
2021/09/19 00:25:44;;;;;;;16.50;15.00;;;13.40;99.90;;;;;;4953845;29;20605;-61
2021/09/19 00:28:10;;;;;;;16.10;14.60;;;13.40;99.90;;;;;;4953499;29;20173;-63
2021/09/19 00:30:36;;;;;;;14.50;13.10;;;13.30;99.90;;;;;;4953723;28;20215;-61
2021/09/19 00:33:01;;;;;;;15.33;13.93;;;13.30;99.90;;;;;;4953783;29;20169;-63
2021/09/19 00:35:27;;;;;;;14.40;13.10;;;13.40;99.90;;;;;;4953812;29;20228;-62
2021/09/19 00:37:53;;;;;;;13.23;12.03;;;13.40;99.90;;;;;;4953316;29;20512;-62
2021/09/19 00:40:19;;;;;;;13.30;12.07;;;13.50;99.90;;;;;;4953703;28;20201;-62
2021/09/19 00:42:45;;;;;;;13.63;12.47;;;13.40;99.90;;;;;;4953859;29;21000;-62
2021/09/19 00:45:14;;;;;;;14.80;13.47;;;13.40;99.90;;;;;;4953654;29;20435;-61
2021/09/19 00:47:40;;;;;;;15.40;14.00;;;13.40;99.90;;;;;;4953329;29;20231;-61
2021/09/19 00:50:08;;;;;;;15.37;14.07;;;13.30;99.90;;;;;;4953384;28;20526;-62
2021/09/19 00:52:34;;;;;;;14.70;13.30;;;13.20;99.90;;;;;;4953664;29;20504;-60
2021/09/19 00:55:00;;;;;;;14.50;13.20;;;13.10;99.90;;;;;;4955566;28;20499;-63
2021/09/19 00:57:27;;;;;;;12.40;11.40;;;13.10;99.90;;;;;;4957138;29;20165;-61
2021/09/19 00:59:54;;;;;;;14.87;13.57;;;13.10;99.90;;;;;;4957118;28;20563;-63
2021/09/19 01:02:20;;;;;;;14.53;13.03;;;13.10;99.90;;;;;;4957258;29;21005;-62
2021/09/19 01:04:47;;;;;;;16.93;14.80;;;13.10;99.90;;;;;;4957062;29;20516;-63
2021/09/19 01:07:16;;;;;;;12.73;11.53;;;13.10;99.90;;;;;;4957071;29;20474;-62
2021/09/19 01:09:42;;;;;;;13.30;12.00;;;13.00;99.90;;;;;;4947567;29;21003;-62
2021/09/19 01:12:10;;;;;;;14.60;13.30;;;13.10;99.90;;;;;;4938018;29;20428;-62
2021/09/19 01:14:41;;;;;;;14.73;13.33;;;13.10;99.90;;;;;;4937897;29;20426;-63
2021/09/19 01:17:07;;;;;;;15.47;14.00;;;12.90;99.90;;;;;;4937795;29;20425;-61
2021/09/19 01:19:35;;;;;;;14.77;13.47;;;12.90;99.90;;;;;;4937425;29;20425;-63
2021/09/19 01:22:02;;;;;;;13.67;12.47;;;12.80;99.90;;;;;;4937816;29;20424;-63
2021/09/19 01:24:28;;;;;;;13.70;12.50;;;12.90;99.90;;;;;;4937786;29;20453;-62
2021/09/19 01:26:54;;;;;;;13.07;11.77;;;13.00;99.90;;;;;;4937722;29;20460;-61
2021/09/19 01:29:20;;;;;;;14.23;12.40;;;13.00;99.90;;;;;;4937201;29;20174;-62
2021/09/19 01:31:46;;;;;;;13.07;11.77;;;13.00;99.90;;;;;;4937613;29;20505;-62
2021/09/19 01:34:12;;;;;;;13.10;11.90;;;13.00;99.90;;;;;;4937368;29;20480;-62
2021/09/19 01:36:38;;;;;;;12.87;11.57;;;13.00;99.90;;;;;;4937511;29;20433;-62
2021/09/19 01:39:05;;;;;;;12.10;11.00;;;13.00;99.90;;;;;;4937279;29;20182;-62
2021/09/19 01:41:32;;;;;;;12.10;10.67;;;13.00;99.90;;;;;;4937339;29;20228;-61
2021/09/19 01:43:57;;;;;;;12.77;11.50;;;13.00;99.90;;;;;;4937320;29;20515;-63
2021/09/19 01:46:23;;;;;;;13.20;12.00;;;13.00;99.90;;;;;;4937262;29;20421;-61
2021/09/19 01:48:49;;;;;;;14.03;12.80;;;13.00;99.90;;;;;;4936901;29;20177;-63
2021/09/19 01:51:14;;;;;;;13.97;12.70;;;13.00;99.90;;;;;;4937127;29;20236;-62
2021/09/19 01:53:41;;;;;;;14.20;12.90;;;12.90;99.90;;;;;;4937281;29;20206;-63
2021/09/19 01:56:08;;;;;;;12.77;11.47;;;12.90;99.90;;;;;;4937182;29;20181;-63
2021/09/19 01:58:42;;;;;;;12.80;11.60;;;12.80;99.90;;;;;;4936924;29;20432;-62
2021/09/19 02:01:08;;;;;;;11.40;10.40;;;12.70;99.90;;;;;;4936808;29;20506;-63
2021/09/19 02:03:36;;;;;;;11.80;10.70;;;12.70;99.90;;;;;;4937152;29;20421;-61
2021/09/19 02:06:02;;;;;;;12.73;11.53;;;12.70;99.90;;;;;;4935901;29;20173;-62
2021/09/19 02:08:28;;;;;;;14.13;12.83;;;12.70;99.90;;;;;;4936662;29;20453;-63
2021/09/19 02:10:54;;;;;;;12.90;11.70;;;12.60;99.90;;;;;;4955919;28;20201;-63
2021/09/19 02:13:19;;;;;;;12.57;11.40;;;12.60;99.90;;;;;;4955978;29;20423;-63
2021/09/19 02:15:45;;;;;;;14.20;12.93;;;12.60;99.90;;;;;;4955867;29;20189;-62
2021/09/19 02:18:10;;;;;;;13.27;12.10;;;12.50;99.90;;;;;;4955692;29;20547;-62
2021/09/19 02:20:36;;;;;;;12.90;11.60;;;12.60;99.90;;;;;;4955833;28;20244;-63
2021/09/19 02:23:01;;;;;;;13.10;11.90;;;12.60;99.90;;;;;;4955845;29;20192;-63
2021/09/19 02:25:27;;;;;;;13.87;12.47;;;12.70;99.90;;;;;;4955853;29;20714;-61
2021/09/19 02:27:52;;;;;;;14.87;13.40;;;12.50;99.90;;;;;;4955456;29;20200;-62
2021/09/19 02:30:18;;;;;;;13.50;12.40;;;12.40;99.90;;;;;;4955472;28;20213;-63
2021/09/19 02:32:44;;;;;;;12.80;11.57;;;12.40;99.90;;;;;;4955755;29;20169;-63
2021/09/19 02:35:10;;;;;;;12.27;11.10;;;12.50;99.90;;;;;;4955611;29;20640;-62
2021/09/19 02:37:37;;;;;;;13.50;12.10;;;12.50;99.90;;;;;;4955356;29;20825;-62
2021/09/19 02:40:04;;;;;;;14.03;12.83;;;12.50;99.90;;;;;;4955454;28;20440;-63
2021/09/19 02:42:30;;;;;;;13.97;12.77;;;12.50;99.90;;;;;;4955359;29;20417;-63
2021/09/19 02:44:55;;;;;;;12.87;11.17;;;12.50;99.90;;;;;;4955244;29;20817;-63
2021/09/19 02:47:21;;;;;;;12.27;11.20;;;12.40;99.90;;;;;;4955085;29;20203;-62
2021/09/19 02:49:46;;;;;;;12.20;11.00;;;12.40;99.90;;;;;;4955198;28;20219;-61
2021/09/19 02:52:12;;;;;;;13.57;12.27;;;12.40;99.90;;;;;;4955330;29;20256;-61
2021/09/19 02:54:37;;;;;;;13.20;12.13;;;12.40;99.90;;;;;;4955220;29;20586;-62
2021/09/19 02:57:03;;;;;;;13.10;11.90;;;12.40;99.90;;;;;;4955217;29;20177;-63
2021/09/19 02:59:29;;;;;;;13.60;12.40;;;12.20;99.90;;;;;;4954615;28;20192;-63
2021/09/19 03:01:54;;;;;;;11.30;10.30;;;12.10;99.90;;;;;;4955168;29;20196;-63
2021/09/19 03:04:20;;;;;;;11.53;10.53;;;12.10;99.90;;;;;;4954992;29;20762;-63
2021/09/19 03:06:46;;;;;;;12.40;11.20;;;12.10;99.90;;;;;;4955033;29;20286;-62
2021/09/19 03:09:11;;;;;;;13.30;12.10;;;12.10;99.90;;;;;;4949578;29;20176;-62
2021/09/19 03:11:37;;;;;;;13.23;11.90;;;12.10;99.90;;;;;;4935633;29;20288;-62
2021/09/19 03:14:02;;;;;;;12.30;11.20;;;12.10;99.90;;;;;;4935602;29;20177;-62
2021/09/19 03:16:28;;;;;;;14.03;12.70;;;12.10;99.90;;;;;;4935763;29;20161;-62
2021/09/19 03:18:53;;;;;;;14.70;13.07;;;12.10;99.90;;;;;;4935143;29;20188;-63
2021/09/19 03:21:19;;;;;;;14.53;13.17;;;11.90;99.90;;;;;;4935486;29;20210;-63
2021/09/19 03:23:44;;;;;;;15.20;13.73;;;11.90;99.90;;;;;;4935609;29;20184;-62
2021/09/19 03:26:10;;;;;;;14.50;13.20;;;12.00;99.90;;;;;;4935496;29;20182;-62
2021/09/19 03:28:35;;;;;;;13.33;12.10;;;12.00;99.90;;;;;;4935626;29;20181;-61
2021/09/19 03:31:01;;;;;;;13.23;12.03;;;11.90;99.90;;;;;;4935245;29;20213;-61
2021/09/19 03:33:27;;;;;;;14.47;13.10;;;11.90;99.90;;;;;;4935322;29;20176;-63
2021/09/19 03:35:52;;;;;;;12.70;11.60;;;12.00;99.90;;;;;;4935348;29;20173;-61
2021/09/19 03:38:18;;;;;;;15.23;13.77;;;12.00;99.90;;;;;;4935007;29;20166;-63
2021/09/19 03:40:43;;;;;;;18.07;14.70;;;12.00;99.90;;;;;;4935181;29;20193;-62
2021/09/19 03:43:09;;;;;;;14.60;12.23;;;12.00;99.90;;;;;;4935154;29;20551;-62
2021/09/19 03:45:34;;;;;;;13.10;11.90;;;11.90;99.90;;;;;;4935122;29;20244;-62
2021/09/19 03:48:05;;;;;;;13.00;11.80;;;11.90;99.90;;;;;;4934836;29;20178;-62
2021/09/19 03:50:31;;;;;;;13.43;11.27;;;11.80;99.90;;;;;;4934868;29;20216;-63
2021/09/19 03:52:57;;;;;;;12.43;11.43;;;11.80;99.90;;;;;;4935116;29;20780;-62
2021/09/19 03:55:23;;;;;;;14.00;11.27;;;11.80;99.90;;;;;;4935129;29;20253;-61
2021/09/19 03:57:48;;;;;;;13.40;12.10;;;11.80;99.90;;;;;;4934638;29;20710;-63
2021/09/19 04:00:14;;;;;;;12.47;11.27;;;11.80;99.90;;;;;;4935578;29;20308;-62
2021/09/19 04:02:40;;;;;;;13.40;12.20;;;11.80;99.90;;;;;;4934964;29;20241;-62
2021/09/19 04:05:07;;;;;;;14.40;12.90;;;11.80;99.90;;;;;;4934859;29;20170;-62
2021/09/19 04:07:33;;;;;;;14.00;12.60;;;11.80;99.90;;;;;;4934622;29;20421;-62
2021/09/19 04:09:59;;;;;;;13.67;12.27;;;11.80;99.90;;;;;;4946257;28;20837;-62
2021/09/19 04:12:24;;;;;;;13.30;12.00;;;11.80;99.90;;;;;;4953867;29;20177;-62
2021/09/19 04:14:49;;;;;;;14.60;13.17;;;11.80;99.90;;;;;;4953905;29;20173;-62
2021/09/19 04:17:15;;;;;;;14.30;12.90;;;11.70;99.90;;;;;;4953778;29;20212;-62
2021/09/19 04:19:40;;;;;;;12.83;11.63;;;11.70;99.90;;;;;;4953935;28;20239;-62
2021/09/19 04:22:06;;;;;;;14.63;13.23;;;11.70;99.90;;;;;;4953933;29;20181;-62
2021/09/19 04:24:31;;;;;;;14.80;13.43;;;11.70;99.90;;;;;;4953889;29;20722;-62
2021/09/19 04:26:57;;;;;;;13.20;12.00;;;11.50;99.90;;;;;;4953725;29;20685;-61
2021/09/19 04:29:22;;;;;;;12.97;11.67;;;11.40;99.90;;;;;;4954205;28;20191;-62
2021/09/19 04:31:48;;;;;;;13.40;12.10;;;11.50;99.90;;;;;;4957924;29;20260;-62
2021/09/19 04:34:13;;;;;;;16.67;13.20;;;11.50;99.90;;;;;;4957779;29;20586;-62
2021/09/19 04:36:39;;;;;;;14.20;12.87;;;11.50;99.90;;;;;;4957786;29;20176;-62
2021/09/19 04:39:05;;;;;;;14.10;12.90;;;11.40;99.90;;;;;;4957469;29;20204;-62
2021/09/19 04:41:30;;;;;;;15.70;13.93;;;11.40;99.90;;;;;;4957458;28;20291;-62
2021/09/19 04:43:56;;;;;;;15.17;13.73;;;11.40;99.90;;;;;;4957517;29;20288;-62
2021/09/19 04:46:21;;;;;;;14.00;12.70;;;11.40;99.90;;;;;;4957606;29;20523;-61
2021/09/19 04:48:47;;;;;;;13.83;12.67;;;11.40;99.90;;;;;;4957219;29;20523;-62
2021/09/19 04:51:12;;;;;;;14.63;13.23;;;11.40;99.90;;;;;;4957335;28;20223;-62
2021/09/19 04:53:38;;;;;;;15.60;14.20;;;11.30;99.90;;;;;;4957457;29;20173;-62
2021/09/19 04:56:03;;;;;;;14.20;12.90;;;11.40;99.90;;;;;;4957384;29;20219;-61
2021/09/19 04:58:29;;;;;;;14.47;12.93;;;11.30;99.90;;;;;;4956925;29;20609;-62
2021/09/19 05:00:54;;;;;;;13.60;12.20;;;11.30;99.90;;;;;;4957094;28;20220;-61
2021/09/19 05:03:20;;;;;;;15.07;13.67;;;11.30;99.90;;;;;;4948899;29;20182;-62
2021/09/19 05:05:45;;;;;;;12.57;11.40;;;11.20;99.90;;;;;;4937566;29;20543;-62
2021/09/19 05:08:11;;;;;;;14.10;12.90;;;11.20;99.90;;;;;;4937399;29;20180;-62
2021/09/19 05:10:37;;;;;;;13.37;12.07;;;11.20;99.90;;;;;;4938229;29;20221;-62
2021/09/19 05:13:02;;;;;;;12.53;11.33;;;11.30;99.90;;;;;;4937894;29;20169;-62
2021/09/19 05:15:28;;;;;;;12.67;11.37;;;11.30;99.90;;;;;;4937908;29;20165;-62
2021/09/19 05:17:53;;;;;;;15.23;13.80;;;11.30;99.90;;;;;;4937668;29;20231;-62
2021/09/19 05:20:19;;;;;;;15.83;14.03;;;11.10;99.90;;;;;;4937719;29;20649;-62
2021/09/19 05:22:44;;;;;;;15.70;14.13;;;11.00;99.90;;;;;;4937797;29;20173;-62
2021/09/19 05:25:10;;;;;;;14.03;12.63;;;10.90;99.90;;;;;;4937722;29;20224;-63
2021/09/19 05:27:36;;;;;;;13.50;12.30;;;11.00;99.90;;;;;;4937393;29;20177;-64
2021/09/19 05:30:02;;;;;;;14.20;12.90;;;11.10;99.90;;;;;;4937766;29;20213;-61
2021/09/19 05:32:28;;;;;;;12.70;11.60;;;11.10;99.90;;;;;;4937498;29;20178;-60
2021/09/19 05:34:53;;;;;;;12.33;11.13;;;11.20;99.90;;;;;;4937048;29;20428;-61
2021/09/19 05:37:19;;;;;;;13.67;12.40;;;11.40;99.90;;;;;;4936780;29;20545;-61
2021/09/19 05:39:44;;;;;;;12.40;11.20;;;11.60;99.90;;;;;;4937417;29;20274;-61
2021/09/19 05:42:10;;;;;;;13.53;12.20;;;11.70;99.90;;;;;;4937292;29;20185;-60
2021/09/19 05:44:36;;;;;;;12.67;11.50;;;11.70;99.90;;;;;;4937388;29;20580;-62
2021/09/19 05:47:01;;;;;;;13.43;12.23;;;11.70;99.90;;;;;;4937290;29;20671;-61
2021/09/19 05:49:27;;;;;;;15.13;13.70;;;11.70;99.90;;;;;;4936853;29;20180;-61
2021/09/19 05:51:52;;;;;;;14.00;12.70;;;11.80;99.90;;;;;;4937371;29;20541;-59
2021/09/19 05:54:18;;;;;;;13.37;12.17;;;11.90;99.90;;;;;;4937238;29;20257;-61
2021/09/19 05:56:43;;;;;;;13.03;11.70;;;12.00;99.90;;;;;;4937064;29;20170;-60
2021/09/19 05:59:09;;;;;;;12.23;11.03;;;12.10;99.90;;;;;;4937004;29;20233;-61
2021/09/19 06:01:34;;;;;;;11.77;10.67;;;12.10;99.90;;;;;;4937289;29;20272;-61
2021/09/19 06:04:00;;;;;;;13.17;11.97;;;12.20;99.90;;;;;;4937160;29;20177;-61
2021/09/19 06:06:25;;;;;;;13.10;11.90;;;12.30;99.90;;;;;;4936959;29;20169;-60
2021/09/19 06:08:51;;;;;;;12.60;11.40;;;12.40;99.90;;;;;;4936647;29;20189;-59
2021/09/19 06:11:16;;;;;;;13.10;11.90;;;12.50;99.90;;;;;;4936682;29;20201;-60
2021/09/19 06:13:42;;;;;;;13.00;11.80;;;12.60;99.90;;;;;;4936841;29;20170;-61
2021/09/19 06:16:07;;;;;;;12.77;11.67;;;12.70;99.90;;;;;;4937029;29;20582;-61
2021/09/19 06:18:34;;;;;;;12.43;11.30;;;12.90;99.90;;;;;;4936524;29;20173;-62
2021/09/19 06:21:00;;;;;;;13.57;12.27;;;13.00;99.90;;;;;;4936616;29;20196;-59
2021/09/19 06:23:26;;;;;;;11.53;10.53;;;13.20;99.90;;;;;;4936706;29;20432;-61
2021/09/19 06:25:52;;;;;;;13.63;12.40;;;13.30;99.90;;;;;;4936584;29;20819;-61
2021/09/19 06:28:18;;;;;;;14.00;12.70;;;13.50;99.90;;;;;;4936334;29;20173;-60
2021/09/19 06:30:44;;;;;;;13.37;12.17;;;13.60;99.90;;;;;;4936426;29;20495;-59
2021/09/19 06:33:09;;;;;;;12.37;11.27;;;13.80;99.90;;;;;;4936537;29;20688;-60
2021/09/19 06:35:35;;;;;;;13.37;12.13;;;13.90;99.90;;;;;;4936461;29;20269;-60
2021/09/19 06:38:00;;;;;;;13.57;12.27;;;14.10;99.90;;;;;;4936180;29;20220;-61
2021/09/19 06:40:26;;;;;;;14.13;12.83;;;14.30;99.90;;;;;;4936178;29;20212;-61
2021/09/19 06:42:51;;;;;;;13.47;12.20;;;14.50;99.90;;;;;;4936368;29;20210;-60
2021/09/19 06:45:17;;;;;;;13.13;11.93;;;14.70;99.90;;;;;;4936262;29;20262;-61
2021/09/19 06:47:43;;;;;;;13.60;12.33;;;14.90;99.90;;;;;;4936121;29;20673;-61
2021/09/19 06:50:11;;;;;;;14.90;13.60;;;15.00;99.90;;;;;;4936038;29;20489;-60
2021/09/19 06:52:37;;;;;;;13.77;12.57;;;15.10;99.90;;;;;;4935738;29;20472;-61
2021/09/19 06:55:03;;;;;;;18.20;16.40;;;15.30;99.90;;;;;;4935999;29;20927;-59
2021/09/19 06:57:29;;;;;;;18.03;16.47;;;15.60;99.90;;;;;;4935794;29;20260;-59
2021/09/19 06:59:54;;;;;;;12.70;11.60;;;15.80;99.90;;;;;;4935850;29;20457;-59
2021/09/19 07:02:20;;;;;;;12.40;11.50;;;16.00;99.90;;;;;;4936016;29;20424;-59
2021/09/19 07:04:45;;;;;;;13.40;12.20;;;16.20;99.90;;;;;;4935914;29;20237;-59
2021/09/19 07:07:11;;;;;;;12.50;11.40;;;16.40;99.90;;;;;;4935808;29;20173;-59
2021/09/19 07:09:37;;;;;;;13.70;12.50;;;16.70;99.90;;;;;;4943924;28;20566;-59
2021/09/19 07:12:03;;;;;;;11.83;10.83;;;16.90;99.90;;;;;;4954988;29;20173;-59
2021/09/19 07:14:28;;;;;;;11.80;10.77;;;17.20;99.90;;;;;;4954875;29;20196;-59
2021/09/19 07:16:54;;;;;;;13.07;11.97;;;17.50;99.90;;;;;;4954962;29;20413;-59
2021/09/19 07:19:20;;;;;;;12.03;10.73;;;17.80;99.90;;;;;;4954507;28;20204;-60
2021/09/19 07:21:45;;;;;;;11.30;10.37;;;17.70;99.90;;;;;;4954831;29;20187;-61
2021/09/19 07:24:11;;;;;;;12.03;11.13;;;18.00;99.90;;;;;;4954625;29;20714;-61
2021/09/19 07:26:37;;;;;;;10.37;9.47;;;18.30;99.90;;;;;;4937485;29;20224;-62
2021/09/19 07:29:03;;;;;;;11.20;10.30;;;18.40;99.90;;;;;;4954300;29;20432;-62
2021/09/19 07:31:29;;;;;;;10.60;9.80;;;18.50;99.90;;;;;;4954475;28;20554;-61
2021/09/19 07:33:55;;;;;;;10.40;9.60;;;18.60;99.90;;;;;;4954661;29;20660;-61
2021/09/19 07:36:27;;;;;;;10.23;9.40;;;18.80;99.90;;;;;;4954515;29;20255;-61
2021/09/19 07:38:53;;;;;;;10.57;9.67;;;18.90;99.90;;;;;;4954174;29;20428;-61
2021/09/19 07:41:18;;;;;;;10.90;10.00;;;19.10;99.90;;;;;;4954449;28;20452;-62
2021/09/19 07:43:45;;;;;;;10.37;9.57;;;19.30;99.90;;;;;;4954282;29;20223;-59
2021/09/19 07:46:11;;;;;;;9.33;8.63;;;19.50;99.90;;;;;;4954413;29;20655;-60
2021/09/19 07:48:36;;;;;;;8.83;8.13;;;19.50;99.90;;;;;;4954077;29;20425;-59
2021/09/19 07:51:02;;;;;;;9.40;8.67;;;19.80;99.90;;;;;;4954061;28;20216;-59
2021/09/19 07:53:28;;;;;;;9.67;8.87;;;19.70;99.90;;;;;;4954205;29;20184;-59
2021/09/19 07:55:53;;;;;;;7.83;7.17;;;19.90;99.90;;;;;;4937034;29;20173;-58
2021/09/19 07:58:19;;;;;;;7.50;6.60;;;20.20;99.90;;;;;;4954221;29;20173;-59
2021/09/19 08:00:44;;;;;;;7.43;6.83;;;20.30;99.90;;;;;;4954234;28;20220;-59
2021/09/19 08:03:10;;;;;;;7.97;7.43;;;20.50;99.90;;;;;;4954191;29;20180;-59
2021/09/19 08:05:35;;;;;;;12.10;7.90;;;20.60;99.90;;;;;;4953487;29;20177;-62
2021/09/19 08:08:01;;;;;;;8.87;8.27;;;21.00;99.90;;;;;;4953630;29;20235;-62
2021/09/19 08:10:26;;;;;;;8.20;7.60;;;21.50;99.90;;;;;;4938658;29;20205;-59
2021/09/19 08:12:52;;;;;;;7.67;7.10;;;21.70;99.90;;;;;;4934881;29;20610;-60
2021/09/19 08:15:19;;;;;;;9.10;8.40;;;21.90;99.90;;;;;;4934880;29;20181;-61
2021/09/19 08:17:45;;;;;;;8.83;8.13;;;21.50;99.90;;;;;;4934543;29;20257;-62
2021/09/19 08:20:13;;;;;;;10.67;9.77;;;21.20;99.90;;;;;;4934632;29;20442;-62
2021/09/19 08:22:40;;;;;;;9.10;8.30;;;21.70;99.90;;;;;;4934634;29;20433;-61
2021/09/19 08:25:07;;;;;;;7.77;7.17;;;22.20;99.90;;;;;;4934738;29;20445;-62
2021/09/19 08:27:34;;;;;;;7.27;6.77;;;22.60;99.90;;;;;;4934494;29;20421;-60
2021/09/19 08:30:01;;;;;;;8.50;7.70;;;23.10;99.90;;;;;;4934483;29;20548;-61
2021/09/19 08:32:26;;;;;;;7.80;7.30;;;23.50;99.90;;;;;;4934695;29;20476;-61
2021/09/19 08:34:52;;;;;;;7.17;6.67;;;24.00;99.90;;;;;;4934551;29;20425;-61
2021/09/19 08:37:17;;;;;;;7.87;7.17;;;24.10;99.90;;;;;;4934451;29;20185;-61
2021/09/19 08:39:43;;;;;;;9.60;8.70;;;24.50;99.90;;;;;;4934709;29;20852;-61
2021/09/19 08:42:08;;;;;;;7.00;6.50;;;24.70;99.90;;;;;;4934721;29;20234;-61
2021/09/19 08:44:34;;;;;;;8.10;7.50;;;25.10;99.90;;;;;;4934607;29;20309;-61
2021/09/19 08:47:00;;;;;;;7.97;7.37;;;25.40;99.90;;;;;;4934549;29;20659;-61
2021/09/19 08:49:26;;;;;;;7.77;7.20;;;25.90;99.70;;;;;;4934101;29;20268;-61
2021/09/19 08:51:52;;;;;;;8.17;7.47;;;26.10;98.40;;;;;;4934563;29;20215;-61
2021/09/19 08:54:18;;;;;;;7.23;6.63;;;26.20;97.70;;;;;;4934495;29;20437;-61
2021/09/19 08:56:46;;;;;;;7.53;6.93;;;26.40;97.40;;;;;;4934846;29;20172;-61
2021/09/19 08:59:11;;;;;;;7.70;7.10;;;26.80;97.50;;;;;;4933983;29;20437;-61
2021/09/19 09:02:00;;;;;;;8.60;7.90;;;27.70;95.40;;;;;;4934444;29;20810;-62
2021/09/19 09:04:26;;;;;;;8.03;7.53;;;27.90;94.00;;;;;;4934323;29;20170;-62
2021/09/19 09:06:53;;;;;;;7.90;7.33;;;28.40;92.50;;;;;;4934262;29;20430;-61
2021/09/19 09:09:19;;;;;;;8.80;8.10;;;28.20;92.10;;;;;;4940264;29;20189;-61
2021/09/19 09:12:06;;;;;;;8.27;7.77;;;28.60;91.70;;;;;;4953438;29;20475;-62
2021/09/19 09:14:59;;;;;;;7.73;7.13;;;28.80;90.50;;;;;;4953429;29;20431;-61
2021/09/19 09:17:27;;;;;;;7.43;6.90;;;29.60;88.40;;;;;;4954420;29;20460;-61
2021/09/19 09:19:55;;;;;;;7.60;7.00;;;29.50;86.80;;;;;;4956910;28;20468;-61
2021/09/19 09:22:23;;;;;;;7.37;6.73;;;29.40;84.80;;;;;;4956890;29;20414;-61
2021/09/19 09:25:09;;;;;;;8.43;7.60;;;29.70;84.70;;;;;;4956899;29;20762;-61
2021/09/19 09:27:40;;;;;;;6.40;6.00;;;29.80;81.40;;;;;;4956462;29;20420;-61
2021/09/19 09:30:11;;;;;;;6.80;6.30;;;30.20;81.50;;;;;;4956627;28;20495;-62
2021/09/19 09:33:00;;;;;;;8.50;7.90;;;31.40;79.10;;;;;;4956878;29;20869;-62
2021/09/19 09:35:37;;;;;;;6.50;6.10;;;31.80;74.30;;;;;;4956611;29;20416;-61
2021/09/19 09:38:20;;;;;;;6.23;5.83;;;31.60;73.70;;;;;;4956433;29;20423;-62
2021/09/19 09:40:47;;;;;;;6.63;6.13;;;31.60;73.40;;;;;;4956609;28;20448;-62
2021/09/19 09:43:15;;;;;;;6.70;6.30;;;32.00;70.90;;;;;;4956570;29;20428;-62
2021/09/19 09:45:43;;;;;;;7.77;7.17;;;32.00;70.30;;;;;;4956481;29;20424;-62
2021/09/19 09:48:27;;;;;;;6.90;6.50;;;31.90;69.00;;;;;;4956671;29;20444;-62
2021/09/19 09:50:54;;;;;;;7.87;7.27;;;31.30;70.10;;;;;;4956252;28;20509;-62
2021/09/19 09:53:24;;;;;;;6.63;6.13;;;31.90;67.40;;;;;;4956431;29;20453;-62
2021/09/19 09:55:52;;;;;;;7.40;6.90;;;33.20;66.10;;;;;;4956408;29;20429;-62
2021/09/19 09:58:18;;;;;;;7.07;6.37;;;34.00;61.90;;;;;;4955960;29;20793;-62
2021/09/19 10:00:54;;;;;;;7.33;6.80;;;34.00;60.90;;;;;;4977914;23;20535;-63
2021/09/19 10:03:20;;;;;;;7.63;7.13;;;33.80;59.60;;;;;;4936976;29;20440;-63
2021/09/19 10:05:46;;;;;;;7.73;7.23;;;33.80;59.60;;;;;;4937042;29;20788;-63
2021/09/19 10:08:13;;;;;;;7.30;6.80;;;34.40;58.20;;;;;;4936770;29;20418;-63
2021/09/19 10:10:43;;;;;;;8.40;7.90;;;34.80;57.10;;;;;;4957916;28;20263;-63
2021/09/19 10:13:11;;;;;;;8.23;7.53;;;34.20;56.40;;;;;;4975410;28;20420;-63
2021/09/19 10:15:38;;;;;;;8.40;7.80;;;35.20;55.30;;;;;;4975448;28;20420;-63
2021/09/19 10:18:04;;;;;;;10.60;9.90;;;36.50;54.10;;;;;;4975178;28;20424;-63
2021/09/19 10:20:38;;;;;;;10.63;10.03;;;35.10;52.90;;;;;;4974992;28;20958;-63
2021/09/19 10:23:18;;;;;;;7.70;6.90;;;35.90;53.20;;;;;;4975269;28;20462;-63
2021/09/19 10:25:55;;;;;;;9.03;8.43;;;36.90;52.40;;;;;;4975203;28;20416;-63
2021/09/19 10:28:26;;;;;;;7.57;6.97;;;36.50;51.80;;;;;;4973995;28;20444;-63
2021/09/19 10:31:13;;;;;;;7.13;6.53;;;36.90;49.80;;;;;;4974899;28;20837;-63
2021/09/19 10:34:02;;;;;;;7.13;6.63;;;37.40;49.10;;;;;;4974886;28;20834;-63
2021/09/19 10:36:53;;;;;;;6.83;6.43;;;38.80;46.40;;;;;;4974486;28;20439;-63
2021/09/19 10:39:41;;;;;;;7.70;7.20;;;39.30;45.10;;;;;;4974774;28;20414;-63
2021/09/19 10:42:17;;;;;;;8.00;7.50;;;40.00;43.30;;;;;;4974767;28;20808;-63
2021/09/19 10:44:53;;;;;;;5.60;5.30;;;40.70;42.00;;;;;;4974851;28;20419;-63
2021/09/19 10:47:25;;;;;;;7.07;6.67;;;39.50;42.50;;;;;;4974471;28;20456;-63
2021/09/19 10:50:10;;;;;;;7.50;6.93;;;39.10;42.20;;;;;;4974541;28;21023;-63
2021/09/19 10:52:46;;;;;;;8.87;8.00;;;38.30;41.60;;;;;;4974593;28;20466;-63
2021/09/19 10:55:27;;;;;;;7.10;6.60;;;34.60;44.70;;;;;;4974658;28;20721;-63
2021/09/19 10:57:55;;;;;;;7.07;6.57;;;34.90;45.30;;;;;;4974266;28;20984;-63
2021/09/19 11:00:21;;;;;;;8.40;7.90;;;35.10;46.20;;;;;;4974341;28;20552;-63
2021/09/19 11:03:02;;;;;;;6.53;6.07;;;34.60;45.10;;;;;;4974386;28;20416;-63
2021/09/19 11:05:29;;;;;;;7.90;7.30;;;35.20;46.30;;;;;;4974676;28;20187;-63
2021/09/19 11:08:07;;;;;;;6.43;5.87;;;35.80;44.80;;;;;;4974056;28;20435;-63
2021/09/19 11:10:55;;;;;;;7.30;6.80;;;34.80;46.60;;;;;;4957985;28;20992;-63
2021/09/19 11:13:22;;;;;;;7.40;6.60;;;35.40;45.60;;;;;;4954835;29;20894;-63
2021/09/19 11:16:06;;;;;;;7.97;7.37;;;36.00;45.00;;;;;;4954851;29;20420;-63
2021/09/19 11:18:41;;;;;;;6.30;5.90;;;36.30;44.40;;;;;;4954594;29;20617;-64
2021/09/19 11:21:27;;;;;;;6.87;6.37;;;36.90;44.60;;;;;;4954735;29;20440;-63
2021/09/19 11:24:13;;;;;;;6.70;6.30;;;38.50;42.70;;;;;;4954609;29;20420;-63
2021/09/19 11:26:50;;;;;;;6.47;6.00;;;39.10;41.10;;;;;;4954693;29;20424;-63
2021/09/19 11:29:24;;;;;;;8.73;5.87;;;39.10;41.70;;;;;;4954706;29;20429;-63
2021/09/19 11:31:50;;;;;;;6.10;5.70;;;38.60;41.80;;;;;;4954519;29;20464;-63
2021/09/19 11:34:20;;;;;;;6.30;5.90;;;38.40;41.80;;;;;;4954508;29;20443;-63
2021/09/19 11:36:48;;;;;;;5.27;4.97;;;37.20;42.40;;;;;;4953253;29;20959;-63
2021/09/19 11:39:15;;;;;;;6.97;6.57;;;38.20;42.80;;;;;;4954330;28;20818;-63
2021/09/19 11:41:42;;;;;;;7.00;6.60;;;39.30;40.80;;;;;;4954434;29;20512;-63
2021/09/19 11:44:10;;;;;;;7.17;6.77;;;39.00;40.40;;;;;;4954345;29;20455;-64
2021/09/19 11:46:41;;;;;;;12.70;11.83;;;39.50;40.40;;;;;;4954339;29;20420;-62
2021/09/19 11:49:07;;;;;;;6.80;6.20;;;38.30;40.30;;;;;;4954130;29;20783;-63
2021/09/19 11:51:33;;;;;;;5.10;4.80;;;35.20;42.80;;;;;;4954090;29;20466;-63
2021/09/19 11:53:58;;;;;;;6.50;6.00;;;32.70;45.80;;;;;;4954370;29;20176;-63
2021/09/19 11:56:26;;;;;;;6.67;6.13;;;31.70;47.60;;;;;;4954657;29;20169;-63
2021/09/19 11:58:52;;;;;;;6.77;6.30;;;31.10;48.50;;;;;;4954027;29;20227;-62
2021/09/19 12:01:27;;;;;;;6.63;6.23;;;30.60;49.20;;;;;;4953904;29;20470;-63
2021/09/19 12:04:01;;;;;;;6.73;6.33;;;31.50;48.80;;;;;;4954264;29;20933;-63
2021/09/19 12:06:28;;;;;;;6.93;6.43;;;34.00;46.30;;;;;;4937050;29;20431;-63
2021/09/19 12:08:53;;;;;;;5.77;5.40;;;36.10;43.60;;;;;;4956669;28;20434;-63
2021/09/19 12:11:19;;;;;;;5.53;5.23;;;37.40;42.20;;;;;;4973368;28;20550;-63
2021/09/19 12:13:49;;;;;;;5.37;5.03;;;38.70;41.30;;;;;;4973273;28;20215;-63
2021/09/19 12:16:22;;;;;;;6.23;5.83;;;39.30;40.10;;;;;;4973454;28;20712;-63
2021/09/19 12:18:50;;;;;;;6.97;6.57;;;39.20;39.90;;;;;;4973051;28;20842;-63
2021/09/19 12:21:18;;;;;;;8.13;7.63;;;37.60;39.90;;;;;;4973245;28;20443;-63
2021/09/19 12:23:52;;;;;;;7.00;6.60;;;35.20;41.90;;;;;;4973281;28;20828;-63
2021/09/19 12:26:30;;;;;;;6.40;5.80;;;32.80;44.20;;;;;;4973006;28;20513;-62
2021/09/19 12:29:08;;;;;;;6.43;6.03;;;31.30;46.50;;;;;;4972868;28;20788;-63
2021/09/19 12:31:40;;;;;;;6.60;6.10;;;31.60;46.60;;;;;;4972943;28;20883;-63
2021/09/19 12:34:07;;;;;;;5.97;5.47;;;34.10;45.00;;;;;;4973072;28;20428;-63
2021/09/19 12:36:43;;;;;;;5.67;5.33;;;36.70;43.00;;;;;;4972939;28;20780;-63